Buoy 46770

sailwx.info

Track history (hours):
 
Tides and Currents Weather Stations Pressure Air Temp Water Temp Dewpoint Dewpoint Depression Visibility Wind Speed Wind Dir Waves Ship Positions

Drifting buoy 46770

Last reported at 2017-Oct-19 14:00 UTC. Time now 2017-Oct-19 16:44 UTC.
Position N 22°44' W 140°08'.

Barometer 1014.9 mb
Water temperature 23.9 ° C

Date/timePositionNaut miles runAvg speedWind from/ knotsBaromVisibWave heightAir tempDewpointWater temp
2017-Oct-19 14:00N 22°44' W 140°08'0 0.0 1014.9 23.9
2017-Oct-19 13:00N 22°44' W 140°08'2 0.8 1015.6 23.9
2017-Oct-19 11:00N 22°44' W 140°06'2 0.4 1014.9 23.8
2017-Oct-19 07:00N 22°45' W 140°05'0 0.0 1017.4 23.9
2017-Oct-19 06:00N 22°45' W 140°05'1 0.8 1017.3 23.9
2017-Oct-19 05:00N 22°46' W 140°05'0 0.0 1017.5 23.8
2017-Oct-19 04:00N 22°46' W 140°05'1 1.3 1016.7 23.8
2017-Oct-19 03:00N 22°45' W 140°04'0 0.0 1016.0 23.8
2017-Oct-19 02:00N 22°45' W 140°04'0 0.0 1015.9 23.9
2017-Oct-19 01:00N 22°45' W 140°04'0 0.0 1015.1 23.9
2017-Oct-19 00:00N 22°45' W 140°04'0 0.0 1015.6 23.9
2017-Oct-18 23:00N 22°45' W 140°04'0 0.0 1015.7 23.9
2017-Oct-18 22:00N 22°45' W 140°04'1 0.4 1016.7 23.9
2017-Oct-18 19:00N 22°44' W 140°05'1 0.6 1017.9 24.0
2017-Oct-18 18:00N 22°44' W 140°06'1 0.8 1017.7 24.0
2017-Oct-18 17:00N 22°44' W 140°07'1 1.3 1017.5 24.0
2017-Oct-18 16:00N 22°43' W 140°08'1 0.6 1016.6 24.1
2017-Oct-18 15:00N 22°43' W 140°08'0 0.0 1016.1 24.1
2017-Oct-18 14:00N 22°43' W 140°08'1 0.6 1015.9 24.1
2017-Oct-18 13:00N 22°43' W 140°08'0 0.0 1015.7 24.1
2017-Oct-18 12:00N 22°43' W 140°08'0 0.0 1015.7 24.1
2017-Oct-18 11:00N 22°43' W 140°08'1 0.1 1016.1 24.1
2017-Oct-18 07:00N 22°43' W 140°09'1 0.6 1017.8 24.2
2017-Oct-18 06:00N 22°43' W 140°10'1 0.6 1017.4 24.2
2017-Oct-18 05:00N 22°42' W 140°10'0 0.0 1016.7 24.2
2017-Oct-18 04:00N 22°42' W 140°10'1 0.8 1016.0 24.2
2017-Oct-18 03:00N 22°41' W 140°09'1 0.6 1015.6 24.2
2017-Oct-18 02:00N 22°41' W 140°10'0 0.0 1015.4 24.3
2017-Oct-18 01:00N 22°41' W 140°10'1 0.6 1015.2 24.3
2017-Oct-18 00:00N 22°41' W 140°10'0 0.0 1015.2 24.3
2017-Oct-17 23:00N 22°41' W 140°10'0 0.0 1015.4 24.3
2017-Oct-17 20:00N 22°41' W 140°10'1 0.6 1016.9 24.3
2017-Oct-17 19:00N 22°41' W 140°09'1 0.8 1017.3 24.2
2017-Oct-17 18:00N 22°41' W 140°10'0 0.0 1016.9 24.3
2017-Oct-17 17:00N 22°41' W 140°10'0 0.0 1016.5 24.2
2017-Oct-17 16:00N 22°41' W 140°10'0 0.0 1015.9 24.3
2017-Oct-17 15:00N 22°41' W 140°10'1 0.6 1015.3 24.3
2017-Oct-17 14:00N 22°42' W 140°10'0 0.0 1014.8 24.3
2017-Oct-17 13:00N 22°42' W 140°10'2 1.6 1014.5 24.3
2017-Oct-17 12:00N 22°43' W 140°11'2 1.6 1014.5 24.3
2017-Oct-17 11:00N 22°42' W 140°10'2 0.5 1014.8 24.3
2017-Oct-17 08:00N 22°43' W 140°11'0 0.0 1016.5 24.2
2017-Oct-17 07:00N 22°43' W 140°11'0 0.0 1016.9 24.3
2017-Oct-17 06:00N 22°43' W 140°11'0 0.0 1016.4 24.3
2017-Oct-17 05:00N 22°43' W 140°11'1 0.6 1015.4 24.3
2017-Oct-17 04:00N 22°44' W 140°11'1 0.6 1014.8 24.3
2017-Oct-17 03:00N 22°43' W 140°11'1 0.6 1014.3 24.3
2017-Oct-17 02:00N 22°44' W 140°11'0 0.0 1014.0 24.4
2017-Oct-17 01:00N 22°44' W 140°11'0 0.0 1013.7 24.4
2017-Oct-16 23:00N 22°44' W 140°11'1 0.3 1014.0 24.4
2017-Oct-16 20:00N 22°44' W 140°10'1 0.6 1015.9 24.4
2017-Oct-16 19:00N 22°45' W 140°10'1 0.6 1016.3 24.3
2017-Oct-16 18:00N 22°46' W 140°10'0 0.0 1016.1 24.3
2017-Oct-16 17:00N 22°46' W 140°10'0 0.0 1015.7 24.3
2017-Oct-16 16:00N 22°46' W 140°10'1 0.6 1015.4 24.3
2017-Oct-16 15:00N 22°46' W 140°10'0 0.0 1014.8 24.3
2017-Oct-16 14:00N 22°46' W 140°10'0 0.0 1014.5 24.3
2017-Oct-16 13:00N 22°46' W 140°10'1 1.3 1014.2 24.3
2017-Oct-16 12:00N 22°47' W 140°09'1 1.3 1014.2 24.3
2017-Oct-16 11:00N 22°46' W 140°10'2 0.4 1014.6 24.3
2017-Oct-16 07:00N 22°47' W 140°09'0 0.0 1016.1 24.3
2017-Oct-16 06:00N 22°47' W 140°09'1 0.6 1016.3 24.3
2017-Oct-16 05:00N 22°48' W 140°09'1 0.8 1015.7 24.3
2017-Oct-16 04:00N 22°49' W 140°10'1 0.6 1015.2 24.3
2017-Oct-16 03:00N 22°48' W 140°10'1 0.8 1014.7 24.3
2017-Oct-16 02:00N 22°49' W 140°09'0 0.0 1014.2 24.3
2017-Oct-16 01:00N 22°49' W 140°09'1 0.8 1014.1 24.3
2017-Oct-16 00:00N 22°49' W 140°08'0 0.0 1014.2 24.3
2017-Oct-15 23:00N 22°49' W 140°08'1 0.2 1014.7 24.2
2017-Oct-15 20:00N 22°49' W 140°09'1 0.6 1016.7 24.2
2017-Oct-15 19:00N 22°49' W 140°08'1 0.6 1017.2 24.1
2017-Oct-15 18:00N 22°50' W 140°08'0 0.0 1017.6 24.1
2017-Oct-15 17:00N 22°50' W 140°08'1 0.6 1016.7 24.1
2017-Oct-15 15:00N 22°50' W 140°07'1 0.6 1015.6 24.1
2017-Oct-15 14:00N 22°50' W 140°07'0 0.0 1015.7 24.1
2017-Oct-15 13:00N 22°50' W 140°07'2 2.4 1016.0 24.1
2017-Oct-15 12:00N 22°52' W 140°05'0 0.0 1015.6 24.1
2017-Oct-15 07:00N 22°52' W 140°05'1 0.6 1017.7 24.1
2017-Oct-15 06:00N 22°52' W 140°05'1 1.3 1017.6 24.1
2017-Oct-15 05:00N 22°53' W 140°04'1 0.6 1017.1 24.1
2017-Oct-15 04:00N 22°53' W 140°05'0 0.0 1016.6 24.1
2017-Oct-15 03:00N 22°53' W 140°05'1 0.6 1016.5 24.1
2017-Oct-15 02:00N 22°53' W 140°04'1 0.6 1016.0 24.1
2017-Oct-15 01:00N 22°54' W 140°04'0 0.0 1015.9 24.1
2017-Oct-15 00:00N 22°54' W 140°04'0 0.0 1016.4 24.1
2017-Oct-14 23:00N 22°54' W 140°04'2 0.6 1016.9 24.1
2017-Oct-14 19:00N 22°56' W 140°02'0 0.0 1019.3 24.1
2017-Oct-14 18:00N 22°56' W 140°02'0 0.0 1019.8 24.1
2017-Oct-14 17:00N 22°56' W 140°02'1 0.6 1019.3 24.2
2017-Oct-14 16:00N 22°56' W 140°02'1 0.6 1018.8 24.2
2017-Oct-14 15:00N 22°56' W 140°02'1 0.6 1018.3 24.2
2017-Oct-14 14:00N 22°56' W 140°01'1 0.6 1018.5 24.2
2017-Oct-14 13:00N 22°56' W 140°02'3 2.5 1018.4 24.2
2017-Oct-14 12:00N 22°58' W 139°59'1 0.2 1018.3 24.2
2017-Oct-14 07:00N 22°58' W 139°58'1 0.8 1020.6 24.3
2017-Oct-14 06:00N 22°58' W 139°59'0 0.0 1020.2 24.3
2017-Oct-14 05:00N 22°58' W 139°59'1 0.8 1019.9 24.3
2017-Oct-14 04:00N 22°59' W 139°58'0 0.0 1019.0 24.3
2017-Oct-14 03:00N 22°59' W 139°58'0 0.0 1018.3 24.3
2017-Oct-14 02:00N 22°59' W 139°58'0 0.0 1017.8 24.3
2017-Oct-14 01:00N 22°59' W 139°58'0 0.0 1017.5 24.3
2017-Oct-14 00:00N 22°59' W 139°58'2 2.3 1017.4 24.3
2017-Oct-13 23:00N 22°59' W 139°56'0 0.0 1017.5 24.3
2017-Oct-13 20:00N 22°59' W 139°56'1 0.8 1018.8 24.3
2017-Oct-13 19:00N 23°00' W 139°55'0 0.0 1019.4 24.2
2017-Oct-13 18:00N 23°00' W 139°55'0 0.0 1019.7 24.2
2017-Oct-13 17:00N 23°00' W 139°55'1 0.6 1019.2 24.2
2017-Oct-13 16:00N 23°01' W 139°55'0 0.0 1018.4 24.2
2017-Oct-13 15:00N 23°01' W 139°55'1 0.6 1018.1 24.1
2017-Oct-13 14:00N 23°01' W 139°55'1 1.3 1017.8 24.1
2017-Oct-13 13:00N 23°01' W 139°53'2 1.8 1017.9 24.1
2017-Oct-13 12:00N 23°01' W 139°55'2 1.8 1017.8 24.1
2017-Oct-13 11:00N 23°01' W 139°53'1 0.1 1018.3 24.1
2017-Oct-13 07:00N 23°01' W 139°53'1 0.8 1019.3 24.0
2017-Oct-13 06:00N 23°02' W 139°52'0 0.0 1019.0 24.0
2017-Oct-13 05:00N 23°02' W 139°52'1 0.6 1018.4 24.0
2017-Oct-13 04:00N 23°02' W 139°53'2 2.2 1017.7 24.0
2017-Oct-13 03:00N 23°02' W 139°50'0 0.0 1017.0 24.0
2017-Oct-13 02:00N 23°02' W 139°50'0 0.0 1016.5 24.0
2017-Oct-13 00:00N 23°02' W 139°50'1 0.4 1016.5 24.0
2017-Oct-12 22:00N 23°01' W 139°51'2 1.1 1017.1 24.0
2017-Oct-12 20:00N 23°03' W 139°50'1 0.6 1018.3 24.0
2017-Oct-12 19:00N 23°03' W 139°49'1 0.8 1018.5 23.9
2017-Oct-12 18:00N 23°04' W 139°50'0 0.0 1018.6 23.9
2017-Oct-12 17:00N 23°04' W 139°50'1 0.6 1018.4 23.9
2017-Oct-12 16:00N 23°04' W 139°49'1 0.8 1018.1 23.9
2017-Oct-12 15:00N 23°04' W 139°50'1 0.8 1017.3 23.9
2017-Oct-12 14:00N 23°05' W 139°49'1 0.6 1017.1 23.9
2017-Oct-12 13:00N 23°04' W 139°49'1 0.2 1016.9 23.9
2017-Oct-12 07:00N 23°05' W 139°48'1 0.6 1018.8 24.0
2017-Oct-12 06:00N 23°04' W 139°48'0 0.0 1018.7 24.0
2017-Oct-12 05:00N 23°04' W 139°48'1 0.8 1018.4 24.0
2017-Oct-12 04:00N 23°05' W 139°47'1 0.6 1017.5 24.0
2017-Oct-12 03:00N 23°05' W 139°47'0 0.0 1017.2 24.0
2017-Oct-12 02:00N 23°05' W 139°47'1 0.6 1017.0 24.0
2017-Oct-12 00:00N 23°05' W 139°46'0 0.0 1016.8 24.0
2017-Oct-11 23:00N 23°05' W 139°46'0 0.0 1016.9 24.0
2017-Oct-11 22:00N 23°05' W 139°46'1 0.4 1017.6 24.0
2017-Oct-11 20:00N 23°05' W 139°45'1 0.8 1018.4 24.0
2017-Oct-11 19:00N 23°06' W 139°44'0 0.0 1018.8 24.0
2017-Oct-11 18:00N 23°06' W 139°44'0 0.0 1018.8 24.0
2017-Oct-11 17:00N 23°06' W 139°44'1 0.8 1018.5 24.0
2017-Oct-11 16:00N 23°05' W 139°44'0 0.0 1017.6 24.0
2017-Oct-11 15:00N 23°05' W 139°44'1 0.8 1017.2 24.0
2017-Oct-11 14:00N 23°06' W 139°43'1 0.6 1016.7 24.0
2017-Oct-11 13:00N 23°07' W 139°43'0 0.0 1016.3 24.0
2017-Oct-11 11:00N 23°07' W 139°43'1 0.2 1016.9 24.0
2017-Oct-11 07:00N 23°07' W 139°43'1 0.6 1018.3 24.0
2017-Oct-11 06:00N 23°07' W 139°42'1 0.6 1017.7 24.0
2017-Oct-11 05:00N 23°07' W 139°43'1 0.6 1017.4 24.0
2017-Oct-11 04:00N 23°07' W 139°42'0 0.0 1016.9 24.0
2017-Oct-11 03:00N 23°07' W 139°42'1 0.6 1016.4 24.0
2017-Oct-11 02:00N 23°07' W 139°43'1 1.1 1015.8 24.0
2017-Oct-11 01:00N 23°07' W 139°41'1 1.1 1015.7 24.1
2017-Oct-11 00:00N 23°07' W 139°40'0 0.0 1015.7 24.1
2017-Oct-10 23:00N 23°07' W 139°40'1 1.1 1015.7 24.1
2017-Oct-10 22:00N 23°07' W 139°39'1 0.2 1016.2 24.1
2017-Oct-10 19:00N 23°08' W 139°39'1 1.1 1017.8 24.0
2017-Oct-10 18:00N 23°08' W 139°38'1 0.6 1017.8 24.0
2017-Oct-10 17:00N 23°08' W 139°38'1 0.6 1017.5 24.0
2017-Oct-10 16:00N 23°08' W 139°38'1 0.6 1016.9 24.0
2017-Oct-10 15:00N 23°08' W 139°38'1 0.8 1016.5 24.0
2017-Oct-10 14:00N 23°08' W 139°37'0 0.0 1016.1 24.0
2017-Oct-10 13:00N 23°08' W 139°37'1 0.6 1015.9 24.0
2017-Oct-10 12:00N 23°08' W 139°37'0 0.0 1016.0 24.1
2017-Oct-10 11:00N 23°08' W 139°37'2 0.4 1016.3 24.1
2017-Oct-10 07:00N 23°08' W 139°35'0 0.0 1017.6 24.1
2017-Oct-10 06:00N 23°08' W 139°35'1 0.8 1017.4 24.1
2017-Oct-10 05:00N 23°08' W 139°34'0 0.0 1016.7 24.1
2017-Oct-10 04:00N 23°08' W 139°34'0 0.0 1016.2 24.1
2017-Oct-10 03:00N 23°08' W 139°34'1 0.6 1015.6 24.1
2017-Oct-10 02:00N 23°08' W 139°34'1 0.6 1015.1 24.2
2017-Oct-10 01:00N 23°08' W 139°33'1 1.1 1014.5 24.2
2017-Oct-10 00:00N 23°08' W 139°32'0 0.0 1014.6 24.2
2017-Oct-09 23:00N 23°08' W 139°32'2 0.6 1014.8 24.2
2017-Oct-09 19:00N 23°07' W 139°29'0 0.0 1016.6 24.1
2017-Oct-09 18:00N 23°07' W 139°29'0 0.0 1016.5 24.1
2017-Oct-09 17:00N 23°07' W 139°29'1 0.6 1016.3 24.1
2017-Oct-09 16:00N 23°07' W 139°29'1 0.8 1015.9 24.1
2017-Oct-09 15:00N 23°07' W 139°28'0 0.0 1015.7 24.1
2017-Oct-09 14:00N 23°07' W 139°28'   1015.3 24.1
Track history (hours):
 
Tides and Currents Weather Stations Pressure Air Temp Water Temp Dewpoint Dewpoint Depression Visibility Wind Speed Wind Dir Waves Ship Positions

Drifting buoy 46770

Last reported at 2017-Oct-19 14:00 UTC. Time now 2017-Oct-19 16:44 UTC.
Position N 22°44' W 140°08'.

Barometer 1014.9 mb
Water temperature 23.9 ° C

Date/timePositionNaut miles runAvg speedWind from/ knotsBaromVisibWave heightAir tempDewpointWater temp
2017-Oct-19 14:00N 22°44' W 140°08'0 0.0 1014.9 23.9
2017-Oct-19 13:00N 22°44' W 140°08'2 0.8 1015.6 23.9
2017-Oct-19 11:00N 22°44' W 140°06'2 0.4 1014.9 23.8
2017-Oct-19 07:00N 22°45' W 140°05'0 0.0 1017.4 23.9
2017-Oct-19 06:00N 22°45' W 140°05'1 0.8 1017.3 23.9
2017-Oct-19 05:00N 22°46' W 140°05'0 0.0 1017.5 23.8
2017-Oct-19 04:00N 22°46' W 140°05'1 1.3 1016.7 23.8
2017-Oct-19 03:00N 22°45' W 140°04'0 0.0 1016.0 23.8
2017-Oct-19 02:00N 22°45' W 140°04'0 0.0 1015.9 23.9
2017-Oct-19 01:00N 22°45' W 140°04'0 0.0 1015.1 23.9
2017-Oct-19 00:00N 22°45' W 140°04'0 0.0 1015.6 23.9
2017-Oct-18 23:00N 22°45' W 140°04'0 0.0 1015.7 23.9
2017-Oct-18 22:00N 22°45' W 140°04'1 0.4 1016.7 23.9
2017-Oct-18 19:00N 22°44' W 140°05'1 0.6 1017.9 24.0
2017-Oct-18 18:00N 22°44' W 140°06'1 0.8 1017.7 24.0
2017-Oct-18 17:00N 22°44' W 140°07'1 1.3 1017.5 24.0
2017-Oct-18 16:00N 22°43' W 140°08'1 0.6 1016.6 24.1
2017-Oct-18 15:00N 22°43' W 140°08'0 0.0 1016.1 24.1
2017-Oct-18 14:00N 22°43' W 140°08'1 0.6 1015.9 24.1
2017-Oct-18 13:00N 22°43' W 140°08'0 0.0 1015.7 24.1
2017-Oct-18 12:00N 22°43' W 140°08'0 0.0 1015.7 24.1
2017-Oct-18 11:00N 22°43' W 140°08'1 0.1 1016.1 24.1
2017-Oct-18 07:00N 22°43' W 140°09'1 0.6 1017.8 24.2
2017-Oct-18 06:00N 22°43' W 140°10'1 0.6 1017.4 24.2
2017-Oct-18 05:00N 22°42' W 140°10'0 0.0 1016.7 24.2
2017-Oct-18 04:00N 22°42' W 140°10'1 0.8 1016.0 24.2
2017-Oct-18 03:00N 22°41' W 140°09'1 0.6 1015.6 24.2
2017-Oct-18 02:00N 22°41' W 140°10'0 0.0 1015.4 24.3
2017-Oct-18 01:00N 22°41' W 140°10'1 0.6 1015.2 24.3
2017-Oct-18 00:00N 22°41' W 140°10'0 0.0 1015.2 24.3
2017-Oct-17 23:00N 22°41' W 140°10'0 0.0 1015.4 24.3
2017-Oct-17 20:00N 22°41' W 140°10'1 0.6 1016.9 24.3
2017-Oct-17 19:00N 22°41' W 140°09'1 0.8 1017.3 24.2
2017-Oct-17 18:00N 22°41' W 140°10'0 0.0 1016.9 24.3
2017-Oct-17 17:00N 22°41' W 140°10'0 0.0 1016.5 24.2
2017-Oct-17 16:00N 22°41' W 140°10'0 0.0 1015.9 24.3
2017-Oct-17 15:00N 22°41' W 140°10'1 0.6 1015.3 24.3
2017-Oct-17 14:00N 22°42' W 140°10'0 0.0 1014.8 24.3
2017-Oct-17 13:00N 22°42' W 140°10'2 1.6 1014.5 24.3
2017-Oct-17 12:00N 22°43' W 140°11'2 1.6 1014.5 24.3
2017-Oct-17 11:00N 22°42' W 140°10'2 0.5 1014.8 24.3
2017-Oct-17 08:00N 22°43' W 140°11'0 0.0 1016.5 24.2
2017-Oct-17 07:00N 22°43' W 140°11'0 0.0 1016.9 24.3
2017-Oct-17 06:00N 22°43' W 140°11'0 0.0 1016.4 24.3
2017-Oct-17 05:00N 22°43' W 140°11'1 0.6 1015.4 24.3
2017-Oct-17 04:00N 22°44' W 140°11'1 0.6 1014.8 24.3
2017-Oct-17 03:00N 22°43' W 140°11'1 0.6 1014.3 24.3
2017-Oct-17 02:00N 22°44' W 140°11'0 0.0 1014.0 24.4
2017-Oct-17 01:00N 22°44' W 140°11'0 0.0 1013.7 24.4
2017-Oct-16 23:00N 22°44' W 140°11'1 0.3 1014.0 24.4
2017-Oct-16 20:00N 22°44' W 140°10'1 0.6 1015.9 24.4
2017-Oct-16 19:00N 22°45' W 140°10'1 0.6 1016.3 24.3
2017-Oct-16 18:00N 22°46' W 140°10'0 0.0 1016.1 24.3
2017-Oct-16 17:00N 22°46' W 140°10'0 0.0 1015.7 24.3
2017-Oct-16 16:00N 22°46' W 140°10'1 0.6 1015.4 24.3
2017-Oct-16 15:00N 22°46' W 140°10'0 0.0 1014.8 24.3
2017-Oct-16 14:00N 22°46' W 140°10'0 0.0 1014.5 24.3
2017-Oct-16 13:00N 22°46' W 140°10'1 1.3 1014.2 24.3
2017-Oct-16 12:00N 22°47' W 140°09'1 1.3 1014.2 24.3
2017-Oct-16 11:00N 22°46' W 140°10'2 0.4 1014.6 24.3
2017-Oct-16 07:00N 22°47' W 140°09'0 0.0 1016.1 24.3
2017-Oct-16 06:00N 22°47' W 140°09'1 0.6 1016.3 24.3
2017-Oct-16 05:00N 22°48' W 140°09'1 0.8 1015.7 24.3
2017-Oct-16 04:00N 22°49' W 140°10'1 0.6 1015.2 24.3
2017-Oct-16 03:00N 22°48' W 140°10'1 0.8 1014.7 24.3
2017-Oct-16 02:00N 22°49' W 140°09'0 0.0 1014.2 24.3
2017-Oct-16 01:00N 22°49' W 140°09'1 0.8 1014.1 24.3
2017-Oct-16 00:00N 22°49' W 140°08'0 0.0 1014.2 24.3
2017-Oct-15 23:00N 22°49' W 140°08'1 0.2 1014.7 24.2
2017-Oct-15 20:00N 22°49' W 140°09'1 0.6 1016.7 24.2
2017-Oct-15 19:00N 22°49' W 140°08'1 0.6 1017.2 24.1
2017-Oct-15 18:00N 22°50' W 140°08'0 0.0 1017.6 24.1
2017-Oct-15 17:00N 22°50' W 140°08'1 0.6 1016.7 24.1
2017-Oct-15 15:00N 22°50' W 140°07'1 0.6 1015.6 24.1
2017-Oct-15 14:00N 22°50' W 140°07'0 0.0 1015.7 24.1
2017-Oct-15 13:00N 22°50' W 140°07'2 2.4 1016.0 24.1
2017-Oct-15 12:00N 22°52' W 140°05'0 0.0 1015.6 24.1
2017-Oct-15 07:00N 22°52' W 140°05'1 0.6 1017.7 24.1
2017-Oct-15 06:00N 22°52' W 140°05'1 1.3 1017.6 24.1
2017-Oct-15 05:00N 22°53' W 140°04'1 0.6 1017.1 24.1
2017-Oct-15 04:00N 22°53' W 140°05'0 0.0 1016.6 24.1
2017-Oct-15 03:00N 22°53' W 140°05'1 0.6 1016.5 24.1
2017-Oct-15 02:00N 22°53' W 140°04'1 0.6 1016.0 24.1
2017-Oct-15 01:00N 22°54' W 140°04'0 0.0 1015.9 24.1
2017-Oct-15 00:00N 22°54' W 140°04'0 0.0 1016.4 24.1
2017-Oct-14 23:00N 22°54' W 140°04'2 0.6 1016.9 24.1
2017-Oct-14 19:00N 22°56' W 140°02'0 0.0 1019.3 24.1
2017-Oct-14 18:00N 22°56' W 140°02'0 0.0 1019.8 24.1
2017-Oct-14 17:00N 22°56' W 140°02'1 0.6 1019.3 24.2
2017-Oct-14 16:00N 22°56' W 140°02'1 0.6 1018.8 24.2
2017-Oct-14 15:00N 22°56' W 140°02'1 0.6 1018.3 24.2
2017-Oct-14 14:00N 22°56' W 140°01'1 0.6 1018.5 24.2
2017-Oct-14 13:00N 22°56' W 140°02'3 2.5 1018.4 24.2
2017-Oct-14 12:00N 22°58' W 139°59'1 0.2 1018.3 24.2
2017-Oct-14 07:00N 22°58' W 139°58'1 0.8 1020.6 24.3
2017-Oct-14 06:00N 22°58' W 139°59'0 0.0 1020.2 24.3
2017-Oct-14 05:00N 22°58' W 139°59'1 0.8 1019.9 24.3
2017-Oct-14 04:00N 22°59' W 139°58'0 0.0 1019.0 24.3
2017-Oct-14 03:00N 22°59' W 139°58'0 0.0 1018.3 24.3
2017-Oct-14 02:00N 22°59' W 139°58'0 0.0 1017.8 24.3
2017-Oct-14 01:00N 22°59' W 139°58'0 0.0 1017.5 24.3
2017-Oct-14 00:00N 22°59' W 139°58'2 2.3 1017.4 24.3
2017-Oct-13 23:00N 22°59' W 139°56'0 0.0 1017.5 24.3
2017-Oct-13 20:00N 22°59' W 139°56'1 0.8 1018.8 24.3
2017-Oct-13 19:00N 23°00' W 139°55'0 0.0 1019.4 24.2
2017-Oct-13 18:00N 23°00' W 139°55'0 0.0 1019.7 24.2
2017-Oct-13 17:00N 23°00' W 139°55'1 0.6 1019.2 24.2
2017-Oct-13 16:00N 23°01' W 139°55'0 0.0 1018.4 24.2
2017-Oct-13 15:00N 23°01' W 139°55'1 0.6 1018.1 24.1
2017-Oct-13 14:00N 23°01' W 139°55'1 1.3 1017.8 24.1
2017-Oct-13 13:00N 23°01' W 139°53'2 1.8 1017.9 24.1
2017-Oct-13 12:00N 23°01' W 139°55'2 1.8 1017.8 24.1
2017-Oct-13 11:00N 23°01' W 139°53'1 0.1 1018.3 24.1
2017-Oct-13 07:00N 23°01' W 139°53'1 0.8 1019.3 24.0
2017-Oct-13 06:00N 23°02' W 139°52'0 0.0 1019.0 24.0
2017-Oct-13 05:00N 23°02' W 139°52'1 0.6 1018.4 24.0
2017-Oct-13 04:00N 23°02' W 139°53'2 2.2 1017.7 24.0
2017-Oct-13 03:00N 23°02' W 139°50'0 0.0 1017.0 24.0
2017-Oct-13 02:00N 23°02' W 139°50'0 0.0 1016.5 24.0
2017-Oct-13 00:00N 23°02' W 139°50'1 0.4 1016.5 24.0
2017-Oct-12 22:00N 23°01' W 139°51'2 1.1 1017.1 24.0
2017-Oct-12 20:00N 23°03' W 139°50'1 0.6 1018.3 24.0
2017-Oct-12 19:00N 23°03' W 139°49'1 0.8 1018.5 23.9
2017-Oct-12 18:00N 23°04' W 139°50'0 0.0 1018.6 23.9
2017-Oct-12 17:00N 23°04' W 139°50'1 0.6 1018.4 23.9
2017-Oct-12 16:00N 23°04' W 139°49'1 0.8 1018.1 23.9
2017-Oct-12 15:00N 23°04' W 139°50'1 0.8 1017.3 23.9
2017-Oct-12 14:00N 23°05' W 139°49'1 0.6 1017.1 23.9
2017-Oct-12 13:00N 23°04' W 139°49'1 0.2 1016.9 23.9
2017-Oct-12 07:00N 23°05' W 139°48'1 0.6 1018.8 24.0
2017-Oct-12 06:00N 23°04' W 139°48'0 0.0 1018.7 24.0
2017-Oct-12 05:00N 23°04' W 139°48'1 0.8 1018.4 24.0
2017-Oct-12 04:00N 23°05' W 139°47'1 0.6 1017.5 24.0
2017-Oct-12 03:00N 23°05' W 139°47'0 0.0 1017.2 24.0
2017-Oct-12 02:00N 23°05' W 139°47'1 0.6 1017.0 24.0
2017-Oct-12 00:00N 23°05' W 139°46'0 0.0 1016.8 24.0
2017-Oct-11 23:00N 23°05' W 139°46'0 0.0 1016.9 24.0
2017-Oct-11 22:00N 23°05' W 139°46'1 0.4 1017.6 24.0
2017-Oct-11 20:00N 23°05' W 139°45'1 0.8 1018.4 24.0
2017-Oct-11 19:00N 23°06' W 139°44'0 0.0 1018.8 24.0
2017-Oct-11 18:00N 23°06' W 139°44'0 0.0 1018.8 24.0
2017-Oct-11 17:00N 23°06' W 139°44'1 0.8 1018.5 24.0
2017-Oct-11 16:00N 23°05' W 139°44'0 0.0 1017.6 24.0
2017-Oct-11 15:00N 23°05' W 139°44'1 0.8 1017.2 24.0
2017-Oct-11 14:00N 23°06' W 139°43'1 0.6 1016.7 24.0
2017-Oct-11 13:00N 23°07' W 139°43'0 0.0 1016.3 24.0
2017-Oct-11 11:00N 23°07' W 139°43'1 0.2 1016.9 24.0
2017-Oct-11 07:00N 23°07' W 139°43'1 0.6 1018.3 24.0
2017-Oct-11 06:00N 23°07' W 139°42'1 0.6 1017.7 24.0
2017-Oct-11 05:00N 23°07' W 139°43'1 0.6 1017.4 24.0
2017-Oct-11 04:00N 23°07' W 139°42'0 0.0 1016.9 24.0
2017-Oct-11 03:00N 23°07' W 139°42'1 0.6 1016.4 24.0
2017-Oct-11 02:00N 23°07' W 139°43'1 1.1 1015.8 24.0
2017-Oct-11 01:00N 23°07' W 139°41'1 1.1 1015.7 24.1
2017-Oct-11 00:00N 23°07' W 139°40'0 0.0 1015.7 24.1
2017-Oct-10 23:00N 23°07' W 139°40'1 1.1 1015.7 24.1
2017-Oct-10 22:00N 23°07' W 139°39'1 0.2 1016.2 24.1
2017-Oct-10 19:00N 23°08' W 139°39'1 1.1 1017.8 24.0
2017-Oct-10 18:00N 23°08' W 139°38'1 0.6 1017.8 24.0
2017-Oct-10 17:00N 23°08' W 139°38'1 0.6 1017.5 24.0
2017-Oct-10 16:00N 23°08' W 139°38'1 0.6 1016.9 24.0
2017-Oct-10 15:00N 23°08' W 139°38'1 0.8 1016.5 24.0
2017-Oct-10 14:00N 23°08' W 139°37'0 0.0 1016.1 24.0
2017-Oct-10 13:00N 23°08' W 139°37'1 0.6 1015.9 24.0
2017-Oct-10 12:00N 23°08' W 139°37'0 0.0 1016.0 24.1
2017-Oct-10 11:00N 23°08' W 139°37'2 0.4 1016.3 24.1
2017-Oct-10 07:00N 23°08' W 139°35'0 0.0 1017.6 24.1
2017-Oct-10 06:00N 23°08' W 139°35'1 0.8 1017.4 24.1
2017-Oct-10 05:00N 23°08' W 139°34'0 0.0 1016.7 24.1
2017-Oct-10 04:00N 23°08' W 139°34'0 0.0 1016.2 24.1
2017-Oct-10 03:00N 23°08' W 139°34'1 0.6 1015.6 24.1
2017-Oct-10 02:00N 23°08' W 139°34'1 0.6 1015.1 24.2
2017-Oct-10 01:00N 23°08' W 139°33'1 1.1 1014.5 24.2
2017-Oct-10 00:00N 23°08' W 139°32'0 0.0 1014.6 24.2
2017-Oct-09 23:00N 23°08' W 139°32'2 0.6 1014.8 24.2
2017-Oct-09 19:00N 23°07' W 139°29'0 0.0 1016.6 24.1
2017-Oct-09 18:00N 23°07' W 139°29'0 0.0 1016.5 24.1
2017-Oct-09 17:00N 23°07' W 139°29'1 0.6 1016.3 24.1
2017-Oct-09 16:00N 23°07' W 139°29'1 0.8 1015.9 24.1
2017-Oct-09 15:00N 23°07' W 139°28'0 0.0 1015.7 24.1
2017-Oct-09 14:00N 23°07' W 139°28'   1015.3 24.1

Dump ship's entire track history